sensor_id;sensor_type;location;lat;lon;timestamp;pressure;altitude;pressure_sealevel;temperature;humidity
62942;BME280;49042;47.318;19.874;2023-04-01T00:00:05;99067.69;;;9.34;100.00
62942;BME280;49042;47.318;19.874;2023-04-01T00:03:08;99070.69;;;9.64;100.00
62942;BME280;49042;47.318;19.874;2023-04-01T00:06:13;99062.44;;;9.31;100.00
62942;BME280;49042;47.318;19.874;2023-04-01T00:09:15;99064.19;;;9.34;100.00
62942;BME280;49042;47.318;19.874;2023-04-01T00:12:17;99058.09;;;9.30;100.00
62942;BME280;49042;47.318;19.874;2023-04-01T00:15:18;99051.91;;;9.21;100.00
62942;BME280;49042;47.318;19.874;2023-04-01T00:18:21;99049.00;;;9.01;100.00
62942;BME280;49042;47.318;19.874;2023-04-01T00:21:23;99041.28;;;9.04;100.00
62942;BME280;49042;47.318;19.874;2023-04-01T00:24:24;99038.59;;;8.99;100.00
62942;BME280;49042;47.318;19.874;2023-04-01T00:27:26;99045.56;;;9.02;100.00
62942;BME280;49042;47.318;19.874;2023-04-01T00:30:28;99032.50;;;8.97;100.00
62942;BME280;49042;47.318;19.874;2023-04-01T00:33:29;99045.53;;;8.99;100.00
62942;BME280;49042;47.318;19.874;2023-04-01T00:36:31;99036.03;;;9.03;100.00
62942;BME280;49042;47.318;19.874;2023-04-01T00:39:34;99029.00;;;8.95;100.00
62942;BME280;49042;47.318;19.874;2023-04-01T00:42:36;99027.19;;;8.91;100.00
62942;BME280;49042;47.318;19.874;2023-04-01T00:45:40;99025.44;;;8.88;100.00
62942;BME280;49042;47.318;19.874;2023-04-01T00:48:54;99030.59;;;8.87;100.00
62942;BME280;49042;47.318;19.874;2023-04-01T00:51:59;99033.50;;;9.07;100.00
62942;BME280;49042;47.318;19.874;2023-04-01T00:55:02;99036.59;;;8.81;100.00
62942;BME280;49042;47.318;19.874;2023-04-01T00:58:09;99027.19;;;8.89;100.00
62942;BME280;49042;47.318;19.874;2023-04-01T01:01:12;99035.00;;;8.91;100.00
62942;BME280;49042;47.318;19.874;2023-04-01T01:10:39;99028.75;;;8.78;100.00
62942;BME280;49042;47.318;19.874;2023-04-01T01:17:14;99037.34;;;8.74;100.00
62942;BME280;49042;47.318;19.874;2023-04-01T01:27:18;99023.38;;;8.65;100.00
62942;BME280;49042;47.318;19.874;2023-04-01T01:30:51;99028.25;;;8.50;100.00
62942;BME280;49042;47.318;19.874;2023-04-01T01:37:22;99034.38;;;8.53;100.00
62942;BME280;49042;47.318;19.874;2023-04-01T01:40:26;99029.94;;;8.46;100.00
62942;BME280;49042;47.318;19.874;2023-04-01T01:43:33;99029.97;;;8.48;100.00
62942;BME280;49042;47.318;19.874;2023-04-01T01:46:38;99022.78;;;8.34;100.00
62942;BME280;49042;47.318;19.874;2023-04-01T01:49:41;99035.13;;;8.46;100.00
62942;BME280;49042;47.318;19.874;2023-04-01T01:52:44;99030.78;;;8.43;100.00
62942;BME280;49042;47.318;19.874;2023-04-01T01:55:47;99031.59;;;8.41;100.00
62942;BME280;49042;47.318;19.874;2023-04-01T01:58:51;99029.03;;;8.44;100.00
62942;BME280;49042;47.318;19.874;2023-04-01T02:01:55;99024.47;;;8.29;100.00
62942;BME280;49042;47.318;19.874;2023-04-01T02:04:58;99032.28;;;8.30;100.00
62942;BME280;49042;47.318;19.874;2023-04-01T02:08:49;99029.66;;;8.29;100.00
62942;BME280;49042;47.318;19.874;2023-04-01T02:11:31;99029.94;;;8.46;100.00
62942;BME280;49042;47.318;19.874;2023-04-01T02:17:45;99014.91;;;8.26;100.00
62942;BME280;49042;47.318;19.874;2023-04-01T02:20:48;99024.41;;;8.27;100.00
62942;BME280;49042;47.318;19.874;2023-04-01T02:23:52;99010.34;;;8.12;100.00
62942;BME280;49042;47.318;19.874;2023-04-01T02:26:54;99012.06;;;8.13;100.00
62942;BME280;49042;47.318;19.874;2023-04-01T02:29:56;99016.22;;;8.02;100.00
62942;BME280;49042;47.318;19.874;2023-04-01T02:32:59;99014.56;;;8.07;100.00
62942;BME280;49042;47.318;19.874;2023-04-01T02:36:01;99010.94;;;7.99;100.00
62942;BME280;49042;47.318;19.874;2023-04-01T02:39:04;99004.69;;;7.87;100.00
62942;BME280;49042;47.318;19.874;2023-04-01T02:42:06;99007.19;;;7.82;100.00
62942;BME280;49042;47.318;19.874;2023-04-01T02:45:08;99002.03;;;7.84;100.00
62942;BME280;49042;47.318;19.874;2023-04-01T02:48:10;98998.34;;;7.73;100.00
62942;BME280;49042;47.318;19.874;2023-04-01T02:51:14;98999.09;;;7.67;100.00
62942;BME280;49042;47.318;19.874;2023-04-01T02:54:19;98997.38;;;7.66;100.00
62942;BME280;49042;47.318;19.874;2023-04-01T02:57:20;99006.75;;;7.60;100.00
62942;BME280;49042;47.318;19.874;2023-04-01T03:00:22;99000.25;;;7.81;100.00
62942;BME280;49042;47.318;19.874;2023-04-01T03:03:24;99005.16;;;7.66;100.00
62942;BME280;49042;47.318;19.874;2023-04-01T03:06:26;99005.00;;;7.58;100.00
62942;BME280;49042;47.318;19.874;2023-04-01T03:09:28;99001.41;;;7.53;100.00
62942;BME280;49042;47.318;19.874;2023-04-01T03:12:30;99007.25;;;7.41;100.00
62942;BME280;49042;47.318;19.874;2023-04-01T03:15:31;99000.22;;;7.35;100.00
62942;BME280;49042;47.318;19.874;2023-04-01T03:18:34;98996.75;;;7.34;100.00
62942;BME280;49042;47.318;19.874;2023-04-01T03:21:35;99002.94;;;7.41;100.00
62942;BME280;49042;47.318;19.874;2023-04-01T03:24:37;98996.69;;;7.31;100.00
62942;BME280;49042;47.318;19.874;2023-04-01T03:27:39;98992.34;;;7.30;100.00
62942;BME280;49042;47.318;19.874;2023-04-01T03:30:40;98994.09;;;7.33;100.00
62942;BME280;49042;47.318;19.874;2023-04-01T03:33:42;98988.91;;;7.31;100.00
62942;BME280;49042;47.318;19.874;2023-04-01T03:36:44;98986.16;;;7.23;100.00
62942;BME280;49042;47.318;19.874;2023-04-01T03:39:46;98999.53;;;7.44;100.00
62942;BME280;49042;47.318;19.874;2023-04-01T03:42:48;99005.41;;;7.35;100.00
62942;BME280;49042;47.318;19.874;2023-04-01T03:45:50;99008.50;;;7.18;100.00
62942;BME280;49042;47.318;19.874;2023-04-01T03:48:52;99001.84;;;7.30;100.00
62942;BME280;49042;47.318;19.874;2023-04-01T03:51:54;99005.91;;;7.18;100.00
62942;BME280;49042;47.318;19.874;2023-04-01T03:54:56;99004.13;;;7.15;100.00
62942;BME280;49042;47.318;19.874;2023-04-01T03:57:57;99007.66;;;7.19;100.00
62942;BME280;49042;47.318;19.874;2023-04-01T04:00:59;99016.84;;;7.04;100.00
62942;BME280;49042;47.318;19.874;2023-04-01T04:04:01;99013.25;;;6.98;100.00
62942;BME280;49042;47.318;19.874;2023-04-01T04:07:03;99028.84;;;6.99;100.00
62942;BME280;49042;47.318;19.874;2023-04-01T04:10:05;99028.00;;;7.00;100.00
62942;BME280;49042;47.318;19.874;2023-04-01T04:13:07;99034.75;;;6.93;100.00
62942;BME280;49042;47.318;19.874;2023-04-01T04:16:10;99033.41;;;7.11;100.00
62942;BME280;49042;47.318;19.874;2023-04-01T04:19:12;99034.00;;;6.98;100.00
62942;BME280;49042;47.318;19.874;2023-04-01T04:22:13;99033.78;;;6.88;100.00
62942;BME280;49042;47.318;19.874;2023-04-01T04:25:15;99027.97;;;6.99;100.00
62942;BME280;49042;47.318;19.874;2023-04-01T04:28:17;99031.19;;;6.88;100.00
62942;BME280;49042;47.318;19.874;2023-04-01T04:31:20;99038.84;;;6.82;100.00
62942;BME280;49042;47.318;19.874;2023-04-01T04:34:22;99032.22;;;6.95;100.00
62942;BME280;49042;47.318;19.874;2023-04-01T04:37:24;99026.34;;;7.04;100.00
62942;BME280;49042;47.318;19.874;2023-04-01T04:40:27;99025.56;;;7.06;100.00
62942;BME280;49042;47.318;19.874;2023-04-01T04:43:28;99031.59;;;7.07;100.00
62942;BME280;49042;47.318;19.874;2023-04-01T04:46:30;99014.44;;;7.14;100.00
62942;BME280;49042;47.318;19.874;2023-04-01T04:49:32;99009.38;;;7.18;100.00
62942;BME280;49042;47.318;19.874;2023-04-01T04:52:34;99013.84;;;7.24;100.00
62942;BME280;49042;47.318;19.874;2023-04-01T04:55:35;99006.53;;;7.49;100.00
62942;BME280;49042;47.318;19.874;2023-04-01T04:58:38;99005.69;;;7.49;100.00
62942;BME280;49042;47.318;19.874;2023-04-01T05:01:40;99003.50;;;7.69;100.00
62942;BME280;49042;47.318;19.874;2023-04-01T05:04:42;99008.09;;;7.85;100.00
62942;BME280;49042;47.318;19.874;2023-04-01T05:07:43;99002.87;;;7.83;100.00
62942;BME280;49042;47.318;19.874;2023-04-01T05:10:45;99000.84;;;7.66;100.00
62942;BME280;49042;47.318;19.874;2023-04-01T05:13:47;98995.78;;;7.74;100.00
62942;BME280;49042;47.318;19.874;2023-04-01T05:16:49;98991.41;;;7.70;100.00
62942;BME280;49042;47.318;19.874;2023-04-01T05:19:52;98996.03;;;7.88;100.00
62942;BME280;49042;47.318;19.874;2023-04-01T05:22:57;99002.78;;;7.78;100.00
62942;BME280;49042;47.318;19.874;2023-04-01T05:26:03;98996.91;;;7.89;100.00
62942;BME280;49042;47.318;19.874;2023-04-01T05:29:05;99004.94;;;8.01;100.00
62942;BME280;49042;47.318;19.874;2023-04-01T05:32:07;99010.25;;;8.08;100.00
62942;BME280;49042;47.318;19.874;2023-04-01T05:35:09;99001.69;;;8.13;100.00
62942;BME280;49042;47.318;19.874;2023-04-01T05:38:11;98999.06;;;8.13;100.00
62942;BME280;49042;47.318;19.874;2023-04-01T05:41:14;98996.75;;;8.29;100.00
62942;BME280;49042;47.318;19.874;2023-04-01T05:44:15;99006.38;;;8.35;100.00
62942;BME280;49042;47.318;19.874;2023-04-01T05:47:17;98998.75;;;8.46;100.00
62942;BME280;49042;47.318;19.874;2023-04-01T05:50:19;98991.25;;;8.63;100.00
62942;BME280;49042;47.318;19.874;2023-04-01T05:53:21;98985.44;;;8.78;100.00
62942;BME280;49042;47.318;19.874;2023-04-01T05:56:23;98984.88;;;9.02;100.00
62942;BME280;49042;47.318;19.874;2023-04-01T05:59:25;98980.88;;;9.26;100.00
62942;BME280;49042;47.318;19.874;2023-04-01T06:02:27;98984.53;;;9.43;100.00
62942;BME280;49042;47.318;19.874;2023-04-01T06:05:30;98988.56;;;9.94;100.00
62942;BME280;49042;47.318;19.874;2023-04-01T06:08:32;98989.66;;;10.22;100.00
62942;BME280;49042;47.318;19.874;2023-04-01T06:11:51;98987.34;;;10.53;100.00
62942;BME280;49042;47.318;19.874;2023-04-01T06:15:18;98992.50;;;10.48;100.00
62942;BME280;49042;47.318;19.874;2023-04-01T06:22:14;98989.06;;;10.53;100.00
62942;BME280;49042;47.318;19.874;2023-04-01T06:32:17;98993.44;;;10.54;100.00
62942;BME280;49042;47.318;19.874;2023-04-01T06:36:24;99001.97;;;10.37;100.00
62942;BME280;49042;47.318;19.874;2023-04-01T06:55:34;99008.53;;;9.97;100.00
62942;BME280;49042;47.318;19.874;2023-04-01T06:59:05;99001.56;;;9.94;100.00
62942;BME280;49042;47.318;19.874;2023-04-01T07:05:31;99004.28;;;10.05;100.00
62942;BME280;49042;47.318;19.874;2023-04-01T07:08:37;99011.28;;;10.11;100.00
62942;BME280;49042;47.318;19.874;2023-04-01T07:11:41;99012.94;;;10.01;100.00
62942;BME280;49042;47.318;19.874;2023-04-01T07:14:44;99007.69;;;9.98;100.00
62942;BME280;49042;47.318;19.874;2023-04-01T07:17:51;99012.06;;;9.99;100.00
62942;BME280;49042;47.318;19.874;2023-04-01T07:20:54;99006.88;;;10.04;100.00
62942;BME280;49042;47.318;19.874;2023-04-01T07:24:01;99001.78;;;10.13;100.00
62942;BME280;49042;47.318;19.874;2023-04-01T07:27:09;99003.56;;;10.21;100.00
62942;BME280;49042;47.318;19.874;2023-04-01T07:30:18;99004.47;;;10.26;100.00
62942;BME280;49042;47.318;19.874;2023-04-01T07:33:30;99004.53;;;10.32;99.76
62942;BME280;49042;47.318;19.874;2023-04-01T07:37:00;98997.66;;;10.41;98.95
62942;BME280;49042;47.318;19.874;2023-04-01T07:40:14;98995.94;;;10.44;97.29
62942;BME280;49042;47.318;19.874;2023-04-01T07:50:17;98998.84;;;10.79;96.91
62942;BME280;49042;47.318;19.874;2023-04-01T07:53:25;98998.88;;;10.87;96.62
62942;BME280;49042;47.318;19.874;2023-04-01T07:56:57;98998.03;;;10.89;95.16
62942;BME280;49042;47.318;19.874;2023-04-01T08:03:21;98997.25;;;11.05;92.36
62942;BME280;49042;47.318;19.874;2023-04-01T08:19:48;98992.12;;;11.22;89.23
62942;BME280;49042;47.318;19.874;2023-04-01T08:22:59;98985.28;;;11.44;88.07
62942;BME280;49042;47.318;19.874;2023-04-01T08:26:16;98982.66;;;11.55;86.70
62942;BME280;49042;47.318;19.874;2023-04-01T08:29:26;98986.19;;;11.64;87.08
62942;BME280;49042;47.318;19.874;2023-04-01T08:32:40;98982.75;;;11.81;84.80
62942;BME280;49042;47.318;19.874;2023-04-01T08:36:38;98980.16;;;11.98;87.11
62942;BME280;49042;47.318;19.874;2023-04-01T08:39:37;98992.38;;;12.13;85.47
62942;BME280;49042;47.318;19.874;2023-04-01T08:43:16;98983.69;;;12.14;82.44
62942;BME280;49042;47.318;19.874;2023-04-01T08:53:37;98988.06;;;12.78;80.98
62942;BME280;49042;47.318;19.874;2023-04-01T09:10:24;98994.84;;;13.45;71.76
62942;BME280;49042;47.318;19.874;2023-04-01T09:20:34;98991.28;;;13.60;69.71
62942;BME280;49042;47.318;19.874;2023-04-01T09:34:34;98990.38;;;13.68;69.04
62942;BME280;49042;47.318;19.874;2023-04-01T09:37:35;98995.53;;;13.88;68.40
62942;BME280;49042;47.318;19.874;2023-04-01T09:50:42;98995.47;;;13.96;63.56
62942;BME280;49042;47.318;19.874;2023-04-01T09:54:32;98997.72;;;14.51;64.61
62942;BME280;49042;47.318;19.874;2023-04-01T10:14:46;98980.37;;;15.23;55.11
62942;BME280;49042;47.318;19.874;2023-04-01T10:41:52;98988.41;;;16.42;53.40
62942;BME280;49042;47.318;19.874;2023-04-01T11:18:50;98962.47;;;15.57;54.92
62942;BME280;49042;47.318;19.874;2023-04-01T11:42:41;98958.00;;;15.62;52.83
62942;BME280;49042;47.318;19.874;2023-04-01T11:46:07;98970.09;;;15.74;53.47
62942;BME280;49042;47.318;19.874;2023-04-01T11:49:29;98972.28;;;15.44;54.78
62942;BME280;49042;47.318;19.874;2023-04-01T11:56:42;98971.97;;;15.67;53.39
62942;BME280;49042;47.318;19.874;2023-04-01T12:03:28;98980.94;;;15.49;53.67
62942;BME280;49042;47.318;19.874;2023-04-01T12:06:37;98976.78;;;15.32;55.05
62942;BME280;49042;47.318;19.874;2023-04-01T12:09:49;98970.56;;;15.39;56.09
62942;BME280;49042;47.318;19.874;2023-04-01T12:23:10;98981.81;;;14.69;58.41
62942;BME280;49042;47.318;19.874;2023-04-01T12:26:25;98976.34;;;14.92;56.80
62942;BME280;49042;47.318;19.874;2023-04-01T13:07:48;98977.91;;;15.12;53.86
62942;BME280;49042;47.318;19.874;2023-04-01T13:11:13;98980.28;;;15.98;53.19
62942;BME280;49042;47.318;19.874;2023-04-01T13:14:25;98977.53;;;16.07;50.95
62942;BME280;49042;47.318;19.874;2023-04-01T13:17:36;98975.78;;;16.04;50.83
62942;BME280;49042;47.318;19.874;2023-04-01T13:20:58;98978.88;;;16.35;50.25
62942;BME280;49042;47.318;19.874;2023-04-01T13:27:18;98983.34;;;17.30;47.00
62942;BME280;49042;47.318;19.874;2023-04-01T13:44:37;98996.25;;;17.42;45.95
62942;BME280;49042;47.318;19.874;2023-04-01T13:51:38;98980.69;;;17.31;45.85
62942;BME280;49042;47.318;19.874;2023-04-01T14:01:41;98976.66;;;16.08;49.02
62942;BME280;49042;47.318;19.874;2023-04-01T14:15:42;98979.13;;;15.56;50.01
62942;BME280;49042;47.318;19.874;2023-04-01T14:25:58;98987.16;;;15.41;49.60
62942;BME280;49042;47.318;19.874;2023-04-01T14:29:38;98986.34;;;15.39;49.23
62942;BME280;49042;47.318;19.874;2023-04-01T14:33:00;98986.28;;;15.41;49.99
62942;BME280;49042;47.318;19.874;2023-04-01T14:49:53;98981.28;;;15.20;50.79
62942;BME280;49042;47.318;19.874;2023-04-01T14:56:08;98986.38;;;15.35;48.80
62942;BME280;49042;47.318;19.874;2023-04-01T15:05:49;98986.16;;;15.54;48.56
62942;BME280;49042;47.318;19.874;2023-04-01T15:09:02;98986.47;;;15.27;48.43
62942;BME280;49042;47.318;19.874;2023-04-01T15:19:05;98999.72;;;15.17;48.67
62942;BME280;49042;47.318;19.874;2023-04-01T15:28:45;99005.44;;;14.67;51.43
62942;BME280;49042;47.318;19.874;2023-04-01T15:32:01;99007.28;;;14.59;51.10
62942;BME280;49042;47.318;19.874;2023-04-01T15:35:21;99015.16;;;14.52;50.84
62942;BME280;49042;47.318;19.874;2023-04-01T15:38:35;99013.50;;;14.42;50.16
62942;BME280;49042;47.318;19.874;2023-04-01T15:42:15;99009.25;;;14.30;48.83
62942;BME280;49042;47.318;19.874;2023-04-01T15:48:39;99019.81;;;14.19;49.19
62942;BME280;49042;47.318;19.874;2023-04-01T15:55:10;99015.53;;;14.05;50.17
62942;BME280;49042;47.318;19.874;2023-04-01T16:21:45;99030.63;;;13.53;53.90
62942;BME280;49042;47.318;19.874;2023-04-01T16:25:20;99033.25;;;13.48;54.06
62942;BME280;49042;47.318;19.874;2023-04-01T16:28:40;99046.34;;;13.48;54.60
62942;BME280;49042;47.318;19.874;2023-04-01T16:41:36;99056.94;;;12.93;55.16
62942;BME280;49042;47.318;19.874;2023-04-01T16:48:12;99058.69;;;12.66;55.22
62942;BME280;49042;47.318;19.874;2023-04-01T16:51:16;99061.31;;;12.58;55.20
62942;BME280;49042;47.318;19.874;2023-04-01T16:54:36;99065.66;;;12.52;55.41
62942;BME280;49042;47.318;19.874;2023-04-01T16:58:00;99064.81;;;12.47;55.50
62942;BME280;49042;47.318;19.874;2023-04-01T17:01:07;99065.66;;;12.40;55.82
62942;BME280;49042;47.318;19.874;2023-04-01T17:23:39;99087.31;;;11.93;59.96
62942;BME280;49042;47.318;19.874;2023-04-01T17:33:25;99095.94;;;11.81;60.87
62942;BME280;49042;47.318;19.874;2023-04-01T17:47:25;99116.75;;;11.61;63.28
62942;BME280;49042;47.318;19.874;2023-04-01T17:50:20;99121.06;;;11.51;64.20
62942;BME280;49042;47.318;19.874;2023-04-01T17:57:14;99124.47;;;11.39;65.16
62942;BME280;49042;47.318;19.874;2023-04-01T18:24:45;99161.44;;;10.82;70.45
62942;BME280;49042;47.318;19.874;2023-04-01T18:27:54;99157.97;;;10.84;71.05
62942;BME280;49042;47.318;19.874;2023-04-01T18:34:12;99165.81;;;10.87;70.96
62942;BME280;49042;47.318;19.874;2023-04-01T18:40:32;99180.34;;;10.61;73.41
62942;BME280;49042;47.318;19.874;2023-04-01T18:50:41;99184.09;;;10.12;75.46
62942;BME280;49042;47.318;19.874;2023-04-01T18:53:59;99184.81;;;9.98;75.71
62942;BME280;49042;47.318;19.874;2023-04-01T18:57:16;99191.84;;;10.05;75.86
62942;BME280;49042;47.318;19.874;2023-04-01T19:03:52;99192.59;;;9.95;77.47
62942;BME280;49042;47.318;19.874;2023-04-01T19:07:01;99195.28;;;10.01;77.57
62942;BME280;49042;47.318;19.874;2023-04-01T19:17:06;99206.47;;;9.94;78.25
62942;BME280;49042;47.318;19.874;2023-04-01T19:20:56;99208.22;;;9.95;77.89
62942;BME280;49042;47.318;19.874;2023-04-01T19:24:21;99202.97;;;9.92;78.21
62942;BME280;49042;47.318;19.874;2023-04-01T19:27:32;99202.09;;;9.91;78.06
62942;BME280;49042;47.318;19.874;2023-04-01T19:33:59;99214.16;;;9.86;78.26
62942;BME280;49042;47.318;19.874;2023-04-01T19:38:11;99225.34;;;9.77;78.65
62942;BME280;49042;47.318;19.874;2023-04-01T19:44:29;99233.88;;;9.68;79.57
62942;BME280;49042;47.318;19.874;2023-04-01T19:51:11;99243.25;;;9.57;80.49
62942;BME280;49042;47.318;19.874;2023-04-01T20:01:22;99241.19;;;9.35;82.28
62942;BME280;49042;47.318;19.874;2023-04-01T20:04:44;99249.97;;;9.42;82.30
62942;BME280;49042;47.318;19.874;2023-04-01T20:07:55;99247.88;;;9.20;83.52
62942;BME280;49042;47.318;19.874;2023-04-01T20:17:43;99250.53;;;9.22;83.13
62942;BME280;49042;47.318;19.874;2023-04-01T20:21:16;99247.72;;;9.11;84.04
62942;BME280;49042;47.318;19.874;2023-04-01T20:24:43;99241.78;;;9.18;84.32
62942;BME280;49042;47.318;19.874;2023-04-01T20:31:24;99252.84;;;9.06;85.11
62942;BME280;49042;47.318;19.874;2023-04-01T20:38:41;99247.44;;;8.94;84.92
62942;BME280;49042;47.318;19.874;2023-04-01T20:48:58;99253.66;;;8.59;87.98
62942;BME280;49042;47.318;19.874;2023-04-01T20:52:17;99254.44;;;8.54;89.28
62942;BME280;49042;47.318;19.874;2023-04-01T20:58:57;99247.13;;;8.78;88.26
62942;BME280;49042;47.318;19.874;2023-04-01T21:18:59;99259.41;;;9.35;85.27
62942;BME280;49042;47.318;19.874;2023-04-01T21:22:36;99260.44;;;8.95;86.54
62942;BME280;49042;47.318;19.874;2023-04-01T21:26:01;99259.41;;;8.85;86.98
62942;BME280;49042;47.318;19.874;2023-04-01T21:35:29;99263.81;;;8.91;87.25
62942;BME280;49042;47.318;19.874;2023-04-01T21:38:44;99262.44;;;9.10;85.68
62942;BME280;49042;47.318;19.874;2023-04-01T22:19:42;99290.09;;;9.04;85.88
62942;BME280;49042;47.318;19.874;2023-04-01T22:26:36;99285.81;;;8.62;89.21
62942;BME280;49042;47.318;19.874;2023-04-01T22:36:43;99308.66;;;8.37;91.37
62942;BME280;49042;47.318;19.874;2023-04-01T22:43:00;99314.16;;;8.11;93.31
62942;BME280;49042;47.318;19.874;2023-04-01T22:46:26;99315.00;;;8.50;90.73
62942;BME280;49042;47.318;19.874;2023-04-01T22:49:37;99318.53;;;8.13;91.92
62942;BME280;49042;47.318;19.874;2023-04-01T22:52:44;99322.75;;;8.49;90.56
62942;BME280;49042;47.318;19.874;2023-04-01T22:55:49;99319.84;;;8.34;91.18
62942;BME280;49042;47.318;19.874;2023-04-01T22:58:58;99325.34;;;8.08;91.78
62942;BME280;49042;47.318;19.874;2023-04-01T23:02:21;99322.78;;;8.10;91.85
62942;BME280;49042;47.318;19.874;2023-04-01T23:05:26;99328.84;;;8.10;92.08
62942;BME280;49042;47.318;19.874;2023-04-01T23:11:59;99323.00;;;8.19;91.68
62942;BME280;49042;47.318;19.874;2023-04-01T23:15:04;99329.91;;;8.19;91.53
62942;BME280;49042;47.318;19.874;2023-04-01T23:18:18;99333.13;;;8.47;90.15
62942;BME280;49042;47.318;19.874;2023-04-01T23:21:38;99334.72;;;8.40;90.42
62942;BME280;49042;47.318;19.874;2023-04-01T23:25:32;99336.25;;;8.30;91.20
62942;BME280;49042;47.318;19.874;2023-04-01T23:34:37;99338.06;;;8.75;88.90
62942;BME280;49042;47.318;19.874;2023-04-01T23:37:38;99336.94;;;8.62;89.65
62942;BME280;49042;47.318;19.874;2023-04-01T23:40:40;99338.87;;;8.72;89.40
62942;BME280;49042;47.318;19.874;2023-04-01T23:43:43;99342.56;;;8.43;90.72
62942;BME280;49042;47.318;19.874;2023-04-01T23:46:47;99353.50;;;8.28;91.05
62942;BME280;49042;47.318;19.874;2023-04-01T23:49:59;99348.41;;;8.33;91.32
62942;BME280;49042;47.318;19.874;2023-04-01T23:53:17;99353.06;;;8.09;92.64
62942;BME280;49042;47.318;19.874;2023-04-01T23:56:20;99351.34;;;8.10;92.98
62942;BME280;49042;47.318;19.874;2023-04-01T23:59:29;99343.84;;;7.85;94.58
